createdAt,value
2018-12-06T00:00:12.408Z,13.33
2018-12-06T00:02:40.851Z,9.83
2018-12-06T00:05:09.462Z,12.27
2018-12-06T00:07:38.168Z,11.50
2018-12-06T00:10:06.861Z,18.40
2018-12-06T00:12:35.307Z,10.93
2018-12-06T00:15:27.022Z,15.90
2018-12-06T00:17:55.463Z,14.90
2018-12-06T00:20:24.073Z,10.87
2018-12-06T00:22:54.508Z,11.40
2018-12-06T00:25:22.987Z,15.67
2018-12-06T00:27:51.602Z,11.40
2018-12-06T00:30:35.844Z,16.53
2018-12-06T00:33:04.807Z,13.50
2018-12-06T00:35:33.373Z,13.97
2018-12-06T00:38:01.908Z,20.53
2018-12-06T00:40:30.499Z,13.63
2018-12-06T00:42:58.961Z,14.80
2018-12-06T00:45:27.392Z,15.43
2018-12-06T00:47:55.884Z,15.13
2018-12-06T00:50:24.364Z,13.40
2018-12-06T00:52:52.833Z,15.87
2018-12-06T00:55:21.312Z,16.83
2018-12-06T00:57:49.817Z,13.47
2018-12-06T01:00:18.312Z,15.23
2018-12-06T01:02:46.752Z,11.27
2018-12-06T01:05:15.369Z,14.70
2018-12-06T01:07:43.863Z,12.53
2018-12-06T01:10:12.324Z,11.17
2018-12-06T01:12:40.824Z,14.50
2018-12-06T01:15:09.414Z,18.00
2018-12-06T01:17:37.891Z,16.97
2018-12-06T01:20:07.810Z,13.87
2018-12-06T01:22:36.289Z,14.27
2018-12-06T01:25:05.975Z,13.60
2018-12-06T01:27:34.489Z,14.00
2018-12-06T01:30:03.096Z,17.83
2018-12-06T01:32:31.560Z,11.20
2018-12-06T01:35:00.052Z,15.70
2018-12-06T01:37:28.484Z,14.93
2018-12-06T01:39:56.963Z,12.57
2018-12-06T01:42:25.428Z,12.60
2018-12-06T01:44:53.855Z,12.60
2018-12-06T01:47:22.332Z,13.40
2018-12-06T01:49:50.809Z,11.73
2018-12-06T01:52:19.272Z,12.07
2018-12-06T01:54:47.768Z,9.30
2018-12-06T01:57:16.221Z,17.03
2018-12-06T01:59:44.715Z,11.83
2018-12-06T02:02:13.192Z,12.40
2018-12-06T02:04:41.702Z,11.00
2018-12-06T02:07:10.262Z,11.37
2018-12-06T02:09:38.720Z,12.17
2018-12-06T02:12:07.216Z,13.50
2018-12-06T02:14:35.708Z,12.13
2018-12-06T02:17:04.211Z,14.83
2018-12-06T02:19:32.668Z,13.17
2018-12-06T02:22:01.143Z,10.23
2018-12-06T02:24:29.587Z,9.73
2018-12-06T02:26:58.069Z,10.77
2018-12-06T02:29:30.740Z,10.90
2018-12-06T02:31:59.231Z,11.63
2018-12-06T02:34:27.677Z,7.57
2018-12-06T02:36:56.171Z,8.07
2018-12-06T02:39:24.610Z,9.37
2018-12-06T02:41:53.073Z,9.93
2018-12-06T02:44:21.600Z,10.20
2018-12-06T02:46:50.042Z,9.50
2018-12-06T02:49:18.540Z,8.77
2018-12-06T02:51:47.027Z,6.67
2018-12-06T02:54:15.590Z,6.67
2018-12-06T02:56:44.036Z,8.80
2018-12-06T02:59:12.499Z,7.13
2018-12-06T03:01:40.980Z,6.80
2018-12-06T03:04:09.456Z,8.80
2018-12-06T03:06:37.928Z,5.40
2018-12-06T03:09:06.856Z,9.67
2018-12-06T03:11:35.312Z,6.80
2018-12-06T03:14:03.793Z,7.10
2018-12-06T03:16:32.476Z,9.97
2018-12-06T03:19:01.177Z,7.30
2018-12-06T03:21:29.655Z,6.90
2018-12-06T03:23:58.151Z,6.63
2018-12-06T03:26:26.661Z,5.30
2018-12-06T03:28:55.123Z,8.30
2018-12-06T03:31:23.581Z,6.80
2018-12-06T03:33:52.053Z,8.30
2018-12-06T03:36:20.549Z,7.20
2018-12-06T03:38:48.985Z,7.77
2018-12-06T03:41:17.449Z,7.00
2018-12-06T03:43:45.934Z,8.30
2018-12-06T03:46:14.396Z,5.03
2018-12-06T03:48:42.852Z,8.07
2018-12-06T03:51:11.366Z,9.50
2018-12-06T03:53:39.915Z,5.93
2018-12-06T03:56:08.376Z,7.20
2018-12-06T03:58:36.872Z,9.07
2018-12-06T04:01:05.354Z,7.70
2018-12-06T04:03:33.798Z,7.30
2018-12-06T04:06:02.241Z,7.10
2018-12-06T04:08:30.725Z,8.17
2018-12-06T04:10:59.190Z,4.87
2018-12-06T04:13:27.652Z,6.27
2018-12-06T04:15:56.106Z,7.07
2018-12-06T04:18:24.582Z,6.93
2018-12-06T04:20:53.009Z,7.57
2018-12-06T04:23:21.479Z,8.60
2018-12-06T04:25:50.493Z,7.60
2018-12-06T04:28:18.934Z,6.70
2018-12-06T04:30:47.529Z,9.03
2018-12-06T04:33:17.348Z,9.43
2018-12-06T04:35:46.049Z,9.07
2018-12-06T04:38:14.488Z,7.50
2018-12-06T04:40:43.317Z,7.90
2018-12-06T04:43:11.749Z,8.97
2018-12-06T04:45:40.220Z,7.40
2018-12-06T04:48:08.680Z,8.80
2018-12-06T04:50:37.554Z,9.60
2018-12-06T04:53:06.016Z,7.50
2018-12-06T04:55:35.627Z,7.43
2018-12-06T04:58:04.192Z,7.30
2018-12-06T05:00:32.664Z,7.00
2018-12-06T05:03:01.150Z,7.70
2018-12-06T05:05:29.616Z,10.43
2018-12-06T05:07:58.896Z,12.00
2018-12-06T05:10:27.356Z,10.23
2018-12-06T05:12:55.821Z,8.60
2018-12-06T05:15:24.720Z,8.20
2018-12-06T05:17:53.152Z,7.93
2018-12-06T05:20:21.570Z,7.23
2018-12-06T05:22:50.061Z,7.13
2018-12-06T05:25:18.520Z,8.37
2018-12-06T05:27:47.044Z,8.63
2018-12-06T05:30:15.483Z,9.10
2018-12-06T05:32:43.886Z,10.50
2018-12-06T05:35:12.613Z,7.63
2018-12-06T05:37:41.028Z,10.37
2018-12-06T05:40:09.500Z,15.60
2018-12-06T05:42:37.969Z,8.93
2018-12-06T05:45:06.668Z,7.63
2018-12-06T05:47:35.410Z,9.17
2018-12-06T05:50:04.299Z,10.23
2018-12-06T05:52:34.480Z,13.13
2018-12-06T05:55:03.025Z,9.80
2018-12-06T05:57:31.523Z,8.33
2018-12-06T06:00:00.491Z,11.50
2018-12-06T06:02:29.748Z,9.37
2018-12-06T06:04:58.604Z,11.90
2018-12-06T06:07:27.062Z,11.20
2018-12-06T06:09:55.587Z,11.97
2018-12-06T06:12:24.242Z,10.13
2018-12-06T06:14:53.163Z,9.80
2018-12-06T06:17:21.619Z,17.70
2018-12-06T06:19:50.481Z,12.53
2018-12-06T06:22:18.932Z,13.43
2018-12-06T06:24:47.495Z,14.33
2018-12-06T06:27:16.064Z,17.63
2018-12-06T06:29:44.647Z,12.93
2018-12-06T06:32:13.474Z,14.47
2018-12-06T06:34:41.959Z,12.67
2018-12-06T06:37:11.864Z,11.90
2018-12-06T06:39:40.504Z,14.47
2018-12-06T06:42:09.896Z,12.60
2018-12-06T06:44:38.352Z,14.83
2018-12-06T06:47:07.962Z,14.57
2018-12-06T06:49:37.825Z,17.20
2018-12-06T06:52:07.447Z,20.47
2018-12-06T06:54:36.055Z,14.90
2018-12-06T06:57:04.576Z,18.73
2018-12-06T06:59:33.185Z,18.17
2018-12-06T07:02:01.650Z,18.40
2018-12-06T07:04:30.093Z,18.60
2018-12-06T07:06:59.022Z,22.43
2018-12-06T07:09:27.460Z,26.90
2018-12-06T07:11:56.035Z,23.50
2018-12-06T07:14:24.602Z,22.47
2018-12-06T07:16:53.748Z,26.27
2018-12-06T07:19:22.252Z,22.90
2018-12-06T07:21:50.736Z,26.60
2018-12-06T07:24:19.279Z,26.10
2018-12-06T07:26:47.939Z,30.27
2018-12-06T07:29:16.480Z,26.53
2018-12-06T07:31:44.907Z,33.93
2018-12-06T07:34:13.481Z,31.83
2018-12-06T07:36:41.885Z,34.10
2018-12-06T07:39:11.141Z,32.50
2018-12-06T07:41:40.051Z,37.23
2018-12-06T07:44:08.499Z,38.73
2018-12-06T07:46:37.580Z,32.63
2018-12-06T07:49:06.044Z,31.90
2018-12-06T07:51:34.520Z,41.80
2018-12-06T07:54:02.943Z,42.03
2018-12-06T07:56:31.775Z,41.87
2018-12-06T07:59:00.721Z,39.33
2018-12-06T08:01:29.195Z,37.83
2018-12-06T08:03:57.665Z,34.87
2018-12-06T08:06:26.185Z,36.53
2018-12-06T08:08:54.604Z,31.70
2018-12-06T08:11:23.079Z,36.27
2018-12-06T08:13:51.515Z,31.07
2018-12-06T08:16:20.083Z,33.30
2018-12-06T08:18:48.514Z,35.10
2018-12-06T08:21:16.999Z,31.50
2018-12-06T08:23:45.573Z,25.33
2018-12-06T08:26:14.126Z,24.10
2018-12-06T08:28:42.621Z,26.60
2018-12-06T08:31:11.222Z,28.87
2018-12-06T08:33:41.005Z,41.53
2018-12-06T08:36:09.495Z,34.43
2018-12-06T08:38:37.997Z,34.13
2018-12-06T08:41:06.538Z,29.30
2018-12-06T08:43:35.668Z,24.77
2018-12-06T08:46:04.830Z,28.10
2018-12-06T08:48:34.159Z,27.00
2018-12-06T08:51:02.748Z,20.07
2018-12-06T08:53:31.240Z,26.77
2018-12-06T08:56:00.178Z,27.37
2018-12-06T08:58:29.117Z,31.30
2018-12-06T09:00:57.535Z,23.77
2018-12-06T09:03:26.812Z,34.23
2018-12-06T09:05:55.704Z,27.27
2018-12-06T09:08:24.284Z,22.30
2018-12-06T09:10:52.724Z,25.40
2018-12-06T09:13:21.301Z,23.90
2018-12-06T09:15:50.197Z,28.37
2018-12-06T09:18:19.446Z,25.23
2018-12-06T09:20:49.718Z,19.93
2018-12-06T09:23:18.673Z,21.97
2018-12-06T09:25:47.773Z,25.33
2018-12-06T09:28:18.347Z,21.83
2018-12-06T09:30:47.798Z,19.77
2018-12-06T09:33:16.325Z,19.73
2018-12-06T09:35:44.816Z,19.57
2018-12-06T09:38:13.556Z,19.50
2018-12-06T09:40:42.045Z,17.90
2018-12-06T09:43:10.776Z,16.60
2018-12-06T09:45:39.246Z,20.80
2018-12-06T09:48:07.784Z,23.13
2018-12-06T09:50:37.342Z,24.13
2018-12-06T09:53:06.100Z,18.27
2018-12-06T09:55:34.585Z,17.63
2018-12-06T09:58:03.088Z,15.30
2018-12-06T10:00:31.529Z,14.03
2018-12-06T10:02:59.990Z,18.83
2018-12-06T10:05:28.457Z,19.20
2018-12-06T10:07:56.950Z,15.40
2018-12-06T10:10:25.762Z,16.50
2018-12-06T10:12:54.184Z,16.50
2018-12-06T10:15:22.666Z,17.03
2018-12-06T10:17:51.084Z,14.50
2018-12-06T10:20:19.608Z,13.60
2018-12-06T10:22:48.043Z,16.90
2018-12-06T10:25:16.553Z,15.43
2018-12-06T10:27:45.102Z,13.40
2018-12-06T10:30:13.599Z,14.20
2018-12-06T10:32:42.126Z,16.70
2018-12-06T10:35:10.894Z,16.80
2018-12-06T10:37:39.344Z,13.13
2018-12-06T10:40:08.084Z,23.53
2018-12-06T10:42:36.525Z,17.13
2018-12-06T10:45:06.451Z,17.90
2018-12-06T10:47:34.896Z,23.23
2018-12-06T10:50:03.704Z,13.30
2018-12-06T10:52:32.155Z,14.60
2018-12-06T10:55:00.661Z,22.03
2018-12-06T10:57:29.449Z,10.93
2018-12-06T10:59:57.874Z,17.93
2018-12-06T11:02:33.437Z,16.67
2018-12-06T11:05:01.877Z,12.67
2018-12-06T11:07:30.303Z,18.03
2018-12-06T11:09:58.739Z,19.93
2018-12-06T11:12:27.276Z,15.30
2018-12-06T11:14:55.752Z,17.23
2018-12-06T11:17:24.301Z,20.03
2018-12-06T11:19:52.773Z,19.00
2018-12-06T11:22:21.206Z,14.87
2018-12-06T11:24:49.661Z,16.03
2018-12-06T11:27:18.459Z,13.30
2018-12-06T11:29:46.908Z,11.80
2018-12-06T11:32:15.391Z,14.40
2018-12-06T11:34:43.803Z,14.37
2018-12-06T11:37:13.453Z,16.73
2018-12-06T11:39:42.306Z,13.93
2018-12-06T11:42:10.850Z,12.70
2018-12-06T11:44:39.354Z,18.53
2018-12-06T11:47:07.829Z,12.87
2018-12-06T11:49:36.957Z,18.33
2018-12-06T11:52:06.294Z,20.30
2018-12-06T11:54:34.728Z,20.37
2018-12-06T11:57:03.184Z,14.23
2018-12-06T11:59:31.616Z,17.07
2018-12-06T12:02:00.092Z,14.07
2018-12-06T12:04:29.200Z,19.40
2018-12-06T12:06:57.655Z,18.20
2018-12-06T12:09:26.072Z,13.57
2018-12-06T12:11:54.648Z,13.20
2018-12-06T12:14:23.075Z,16.93
2018-12-06T12:16:51.496Z,13.37
2018-12-06T12:19:19.960Z,9.70
2018-12-06T12:21:48.697Z,15.70
2018-12-06T12:24:17.507Z,12.83
2018-12-06T12:26:46.094Z,19.90
2018-12-06T12:29:15.153Z,13.13
2018-12-06T12:31:50.089Z,11.10
2018-12-06T12:34:18.598Z,15.73
2018-12-06T12:36:47.391Z,16.80
2018-12-06T12:39:16.809Z,16.73
2018-12-06T12:41:45.230Z,10.60
2018-12-06T12:44:13.696Z,15.43
2018-12-06T12:46:42.367Z,16.63
2018-12-06T12:49:10.971Z,16.00
2018-12-06T12:51:39.821Z,13.77
2018-12-06T12:54:08.269Z,14.33
2018-12-06T12:56:36.731Z,10.63
2018-12-06T12:59:06.412Z,7.97
2018-12-06T13:01:34.890Z,8.37
2018-12-06T13:04:04.961Z,8.97
2018-12-06T13:06:34.219Z,8.37
2018-12-06T13:09:04.843Z,10.53
2018-12-06T13:11:33.305Z,8.40
2018-12-06T13:14:02.749Z,7.87
2018-12-06T13:16:32.082Z,12.70
2018-12-06T13:19:02.616Z,11.17
2018-12-06T13:21:32.456Z,10.33
2018-12-06T13:24:01.363Z,10.07
2018-12-06T13:26:30.440Z,11.40
2018-12-06T13:28:59.003Z,9.87
2018-12-06T13:31:27.594Z,12.90
2018-12-06T13:33:56.667Z,14.77
2018-12-06T13:36:25.837Z,8.00
2018-12-06T13:38:54.491Z,13.47
2018-12-06T13:41:23.831Z,15.50
2018-12-06T13:43:52.724Z,10.63
2018-12-06T13:46:21.412Z,12.20
2018-12-06T13:48:51.944Z,9.10
2018-12-06T13:51:21.373Z,7.83
2018-12-06T13:53:50.010Z,6.30
2018-12-06T13:56:18.611Z,6.87
2018-12-06T13:58:48.196Z,8.77
2018-12-06T14:01:17.145Z,17.30
2018-12-06T14:03:46.517Z,17.93
2018-12-06T14:06:14.992Z,7.63
2018-12-06T14:08:43.616Z,4.37
2018-12-06T14:11:13.012Z,9.03
2018-12-06T14:13:43.284Z,9.50
2018-12-06T14:16:12.081Z,6.07
2018-12-06T14:18:40.657Z,8.83
2018-12-06T14:21:10.087Z,8.23
2018-12-06T14:23:39.035Z,7.67
2018-12-06T14:26:07.848Z,11.33
2018-12-06T14:28:36.475Z,7.40
2018-12-06T14:31:05.220Z,8.13
2018-12-06T14:33:34.819Z,11.33
2018-12-06T14:36:04.133Z,8.00
2018-12-06T14:38:33.665Z,11.23
2018-12-06T14:41:02.733Z,6.63
2018-12-06T14:43:31.411Z,8.33
2018-12-06T14:46:00.673Z,5.90
2018-12-06T14:48:29.678Z,7.30
2018-12-06T14:51:03.984Z,7.90
2018-12-06T14:53:32.530Z,9.57
2018-12-06T14:56:01.171Z,9.43
2018-12-06T14:58:29.778Z,9.67
2018-12-06T15:00:58.638Z,6.57
2018-12-06T15:03:28.583Z,13.13
2018-12-06T15:05:57.308Z,8.90
2018-12-06T15:08:25.995Z,10.07
2018-12-06T15:10:54.616Z,12.20
2018-12-06T15:13:23.282Z,8.33
2018-12-06T15:15:52.374Z,10.20
2018-12-06T15:18:21.013Z,12.27
2018-12-06T15:20:49.589Z,8.97
2018-12-06T15:23:18.611Z,13.07
2018-12-06T15:25:47.335Z,9.70
2018-12-06T15:28:17.168Z,9.13
2018-12-06T15:30:45.752Z,9.77
2018-12-06T15:33:14.656Z,5.53
2018-12-06T15:35:43.266Z,8.20
2018-12-06T15:38:11.838Z,36.70
2018-12-06T15:40:40.419Z,8.60
2018-12-06T15:43:09.091Z,13.10
2018-12-06T15:45:37.735Z,8.80
2018-12-06T15:48:06.562Z,13.37
2018-12-06T15:50:35.178Z,8.50
2018-12-06T15:53:03.756Z,9.43
2018-12-06T15:55:32.544Z,9.37
2018-12-06T15:58:01.263Z,5.63
2018-12-06T16:00:29.881Z,8.83
2018-12-06T16:02:58.480Z,8.70
2018-12-06T16:05:26.967Z,9.03
2018-12-06T16:07:55.590Z,6.20
2018-12-06T16:10:24.196Z,4.70
2018-12-06T16:12:52.766Z,8.67
2018-12-06T16:15:21.335Z,8.63
2018-12-06T16:17:49.814Z,7.97
2018-12-06T16:20:18.285Z,8.83
2018-12-06T16:22:46.774Z,8.93
2018-12-06T16:25:15.243Z,7.90
2018-12-06T16:27:43.730Z,8.47
2018-12-06T16:30:12.411Z,6.30
2018-12-06T16:32:40.895Z,6.73
2018-12-06T16:35:09.419Z,9.57
2018-12-06T16:37:37.992Z,4.87
2018-12-06T16:40:07.204Z,7.10
2018-12-06T16:42:35.758Z,8.17
2018-12-06T16:45:04.745Z,8.33
2018-12-06T16:47:33.506Z,6.20
2018-12-06T16:50:02.129Z,5.50
2018-12-06T16:52:30.592Z,4.60
2018-12-06T16:54:59.058Z,8.50
2018-12-06T16:57:27.548Z,6.87
2018-12-06T16:59:55.984Z,7.03
2018-12-06T17:02:24.600Z,6.47
2018-12-06T17:04:53.024Z,6.27
2018-12-06T17:07:21.499Z,7.10
2018-12-06T17:09:50.101Z,6.00
2018-12-06T17:12:18.584Z,6.43
2018-12-06T17:14:47.028Z,8.17
2018-12-06T17:17:15.481Z,6.40
2018-12-06T17:19:44.007Z,7.70
2018-12-06T17:22:12.453Z,8.10
2018-12-06T17:24:40.959Z,8.10
2018-12-06T17:27:09.412Z,10.30
2018-12-06T17:29:37.852Z,7.60
2018-12-06T17:32:06.361Z,8.20
2018-12-06T17:34:34.793Z,7.20
2018-12-06T17:37:03.261Z,9.23
2018-12-06T17:39:31.738Z,7.33
2018-12-06T17:42:00.173Z,10.87
2018-12-06T17:44:28.668Z,6.80
2018-12-06T17:46:59.119Z,6.93
2018-12-06T17:49:27.571Z,8.03
2018-12-06T17:51:57.140Z,38.27
2018-12-06T17:54:26.760Z,7.87
2018-12-06T17:56:55.190Z,16.20
2018-12-06T17:59:24.878Z,10.73
2018-12-06T18:01:54.954Z,9.87
2018-12-06T18:04:23.794Z,13.00
2018-12-06T18:06:52.209Z,8.67
2018-12-06T18:09:20.996Z,11.83
2018-12-06T18:11:49.458Z,10.53
2018-12-06T18:14:18.756Z,7.60
2018-12-06T18:16:47.217Z,9.50
2018-12-06T18:19:15.642Z,8.67
2018-12-06T18:21:44.091Z,7.37
2018-12-06T18:24:18.584Z,8.57
2018-12-06T18:26:43.580Z,7.70
2018-12-06T18:29:12.481Z,8.20
2018-12-06T18:31:47.455Z,7.03
2018-12-06T18:34:16.183Z,8.27
2018-12-06T18:36:44.698Z,10.17
2018-12-06T18:39:13.120Z,8.00
2018-12-06T18:41:41.622Z,7.27
2018-12-06T18:44:10.112Z,11.33
2018-12-06T18:46:38.675Z,9.73
2018-12-06T18:49:07.139Z,9.73
2018-12-06T18:51:36.520Z,7.80
2018-12-06T18:54:05.031Z,7.40
2018-12-06T18:56:34.032Z,7.70
2018-12-06T18:59:09.312Z,8.00
2018-12-06T19:01:37.747Z,9.00
2018-12-06T19:04:06.229Z,10.00
2018-12-06T19:06:42.323Z,8.57
2018-12-06T19:09:11.483Z,7.43
2018-12-06T19:11:39.951Z,7.77
2018-12-06T19:14:09.708Z,18.70
2018-12-06T19:16:38.197Z,7.80
2018-12-06T19:19:06.662Z,8.50
2018-12-06T19:21:35.583Z,7.33
2018-12-06T19:24:04.309Z,7.93
2018-12-06T19:26:32.785Z,6.10
2018-12-06T19:29:01.259Z,6.43
2018-12-06T19:31:29.796Z,7.00
2018-12-06T19:33:58.243Z,8.60
2018-12-06T19:36:26.716Z,6.10
2018-12-06T19:38:55.681Z,5.07
2018-12-06T19:41:24.166Z,5.63
2018-12-06T19:43:53.565Z,6.83
2018-12-06T19:46:22.045Z,6.23
2018-12-06T19:48:50.872Z,10.70
2018-12-06T19:51:19.884Z,4.90
2018-12-06T19:54:27.090Z,5.80
2018-12-06T19:56:55.513Z,5.10
2018-12-06T19:59:24.204Z,6.20
2018-12-06T20:01:53.794Z,4.27
2018-12-06T20:04:23.196Z,4.67
2018-12-06T20:06:52.608Z,4.33
2018-12-06T20:09:21.367Z,8.63
2018-12-06T20:11:51.125Z,4.80
2018-12-06T20:14:21.052Z,4.77
2018-12-06T20:16:49.492Z,8.10
2018-12-06T20:19:19.106Z,5.77
2018-12-06T20:21:51.566Z,5.27
2018-12-06T20:24:20.104Z,6.47
2018-12-06T20:26:48.528Z,5.70
2018-12-06T20:29:18.010Z,4.23
2018-12-06T20:31:49.065Z,5.90
2018-12-06T20:34:17.510Z,5.37
2018-12-06T20:36:47.347Z,6.20
2018-12-06T20:39:15.779Z,4.73
2018-12-06T20:41:44.218Z,5.60
2018-12-06T20:44:13.572Z,8.00
2018-12-06T20:46:42.491Z,6.50
2018-12-06T20:49:10.956Z,7.40
2018-12-06T20:51:39.712Z,4.83
2018-12-06T20:54:08.243Z,5.57
2018-12-06T20:56:37.657Z,5.73
2018-12-06T20:59:06.178Z,7.07
2018-12-06T21:01:34.600Z,6.40
2018-12-06T21:04:03.066Z,5.07
2018-12-06T21:06:31.839Z,6.60
2018-12-06T21:09:01.029Z,5.37
2018-12-06T21:11:29.560Z,5.73
2018-12-06T21:13:58.339Z,8.07
2018-12-06T21:16:26.778Z,7.33
2018-12-06T21:18:55.651Z,5.83
2018-12-06T21:21:24.084Z,5.57
2018-12-06T21:23:52.590Z,6.73
2018-12-06T21:26:21.202Z,7.70
2018-12-06T21:28:49.730Z,7.27
2018-12-06T21:31:18.512Z,5.70
2018-12-06T21:33:46.935Z,6.03
2018-12-06T21:36:15.369Z,8.50
2018-12-06T21:38:43.801Z,6.90
2018-12-06T21:41:12.385Z,6.80
2018-12-06T21:43:41.168Z,9.73
2018-12-06T21:46:10.354Z,8.60
2018-12-06T21:48:38.856Z,6.20
2018-12-06T21:51:07.640Z,6.53
2018-12-06T21:53:36.096Z,6.13
2018-12-06T21:56:04.587Z,5.00
2018-12-06T21:58:33.075Z,7.50
2018-12-06T22:01:01.595Z,7.10
2018-12-06T22:03:30.053Z,5.90
2018-12-06T22:05:59.448Z,9.00
2018-12-06T22:08:27.872Z,6.33
2018-12-06T22:10:56.376Z,6.92
2018-12-06T22:13:24.797Z,8.00
2018-12-06T22:15:54.132Z,8.87
2018-12-06T22:18:22.948Z,8.20
2018-12-06T22:20:52.060Z,5.73
2018-12-06T22:23:20.755Z,5.23
2018-12-06T22:25:49.362Z,5.70
2018-12-06T22:28:17.784Z,4.73
2018-12-06T22:30:46.875Z,3.40
2018-12-06T22:33:15.713Z,6.03
2018-12-06T22:35:44.220Z,6.53
2018-12-06T22:38:13.412Z,4.63
2018-12-06T22:40:42.115Z,7.30
2018-12-06T22:43:10.548Z,5.03
2018-12-06T22:46:10.851Z,5.17
2018-12-06T22:48:39.294Z,6.80
2018-12-06T22:51:08.216Z,7.67
2018-12-06T22:53:36.784Z,10.80
2018-12-06T22:56:06.931Z,12.50
2018-12-06T22:58:35.408Z,6.90
2018-12-06T23:01:08.487Z,5.90
2018-12-06T23:03:37.107Z,6.77
2018-12-06T23:06:05.957Z,5.60
2018-12-06T23:08:34.407Z,13.83
2018-12-06T23:11:03.127Z,5.63
2018-12-06T23:13:31.632Z,5.23
2018-12-06T23:16:00.462Z,4.20
2018-12-06T23:18:28.879Z,3.63
2018-12-06T23:20:57.343Z,4.87
2018-12-06T23:23:25.789Z,3.60
2018-12-06T23:25:54.410Z,5.10
2018-12-06T23:28:22.856Z,4.00
2018-12-06T23:30:51.300Z,4.03
2018-12-06T23:33:21.124Z,4.97
2018-12-06T23:35:49.640Z,4.97
2018-12-06T23:38:18.084Z,6.73
2018-12-06T23:40:46.956Z,5.73
2018-12-06T23:43:15.500Z,7.03
2018-12-06T23:45:44.122Z,6.40
2018-12-06T23:48:13.242Z,4.50
2018-12-06T23:50:41.731Z,4.97
2018-12-06T23:53:10.188Z,5.37
2018-12-06T23:55:38.632Z,5.13
2018-12-06T23:58:07.354Z,4.63
